Time;durP1;ratioP1;P1;durP2;ratioP2;P2;SDS_P1;SDS_P2;PMS_P1;PMS_P2;Temp;Humidity;BMP_temperature;BMP_pressure;BME280_temperature;BME280_humidity;BME280_pressure;Samples;Min_cycle;Max_cycle;Signal;HPM_P1;HPM_P2
2023/07/24 00:00:01;;;;;;;0.10;0.10;;;;;;;16.51;100.00;100346.53;5052133;28;20060;-50
2023/07/24 00:02:26;;;;;;;0.10;0.10;;;;;;;16.50;100.00;100349.16;5052469;28;20033;-47
2023/07/24 00:04:52;;;;;;;0.10;0.10;;;;;;;16.53;100.00;100343.97;5052726;28;20033;-49
2023/07/24 00:07:17;;;;;;;0.10;0.10;;;;;;;16.54;100.00;100340.47;5051970;28;20017;-47
2023/07/24 00:09:42;;;;;;;0.10;0.10;;;;;;;16.53;100.00;100333.56;5052277;28;20102;-48
2023/07/24 00:12:08;;;;;;;0.10;0.10;;;;;;;16.55;100.00;100337.00;5052865;28;20104;-49
2023/07/24 00:14:33;;;;;;;0.10;0.10;;;;;;;16.55;100.00;100324.00;5051749;28;20017;-49
2023/07/24 00:16:59;;;;;;;0.00;0.00;;;;;;;16.56;100.00;100328.34;5052712;28;20029;-49
2023/07/24 00:19:24;;;;;;;0.10;0.10;;;;;;;16.56;100.00;100328.34;5052032;28;20071;-49
2023/07/24 00:21:49;;;;;;;0.10;0.10;;;;;;;16.56;100.00;100323.97;5051972;28;20025;-49
2023/07/24 00:24:14;;;;;;;0.10;0.10;;;;;;;16.54;100.00;100322.25;5052484;28;20029;-49
2023/07/24 00:26:40;;;;;;;0.10;0.10;;;;;;;16.52;100.00;100308.41;5052119;28;20033;-50
2023/07/24 00:29:05;;;;;;;0.10;0.10;;;;;;;16.49;100.00;100306.69;5052087;28;20051;-48
2023/07/24 00:31:30;;;;;;;0.10;0.10;;;;;;;16.51;100.00;100304.06;5052269;28;20045;-47
2023/07/24 00:33:56;;;;;;;0.10;0.10;;;;;;;16.53;100.00;100299.75;5052346;28;20036;-49
2023/07/24 00:36:21;;;;;;;0.10;0.10;;;;;;;16.52;100.00;100296.25;5051880;28;20056;-50
2023/07/24 00:38:46;;;;;;;0.10;0.10;;;;;;;16.54;100.00;100298.84;5052085;28;20457;-48
2023/07/24 00:41:11;;;;;;;0.10;0.10;;;;;;;16.54;100.00;100298.84;5051918;28;20040;-48
2023/07/24 00:43:37;;;;;;;0.10;0.10;;;;;;;16.55;100.00;100303.19;5051924;28;20079;-50
2023/07/24 00:46:02;;;;;;;0.10;0.10;;;;;;;16.55;100.00;100305.78;5056458;28;20108;-48
2023/07/24 00:48:28;;;;;;;0.10;0.10;;;;;;;16.54;100.00;100288.44;5055636;28;20060;-48
2023/07/24 00:50:54;;;;;;;0.10;0.10;;;;;;;16.51;100.00;100281.50;5055812;28;20100;-47
2023/07/24 00:53:19;;;;;;;0.10;0.10;;;;;;;16.50;100.00;100282.41;5056218;28;20159;-53
2023/07/24 00:55:46;;;;;;;0.05;0.05;;;;;;;16.51;100.00;100278.91;5055030;28;20025;-49
2023/07/24 00:58:14;;;;;;;0.10;0.10;;;;;;;16.51;100.00;100278.06;5056283;28;20024;-50
2023/07/24 01:00:40;;;;;;;0.10;0.10;;;;;;;16.51;100.00;100278.06;5055675;28;20493;-50
2023/07/24 01:03:06;;;;;;;0.10;0.10;;;;;;;16.50;100.00;100278.94;5055255;28;20029;-50
2023/07/24 01:05:31;;;;;;;0.10;0.10;;;;;;;16.52;100.00;100285.00;5055855;28;20477;-50
2023/07/24 01:07:57;;;;;;;0.00;0.00;;;;;;;16.51;100.00;100283.25;5055975;28;20025;-50
2023/07/24 01:10:22;;;;;;;0.10;0.10;;;;;;;16.50;100.00;100271.13;5054549;28;20037;-46
2023/07/24 01:12:53;;;;;;;0.10;0.10;;;;;;;16.51;100.00;100275.47;5055937;28;20059;-51
2023/07/24 01:15:44;;;;;;;0.10;0.10;;;;;;;16.49;100.00;100265.06;5055819;28;20036;-50
2023/07/24 01:18:11;;;;;;;0.10;0.10;;;;;;;16.50;100.00;100256.41;5055143;28;20039;-50
2023/07/24 01:20:40;;;;;;;0.10;0.10;;;;;;;16.49;100.00;100257.25;5055410;28;20025;-49
2023/07/24 01:23:36;;;;;;;0.00;0.00;;;;;;;16.52;100.00;100253.78;5055685;28;20021;-49
2023/07/24 01:26:04;;;;;;;0.10;0.10;;;;;;;16.52;100.00;100251.19;5055105;28;20029;-49
2023/07/24 01:28:30;;;;;;;0.10;0.10;;;;;;;16.51;100.00;100258.09;5055270;28;20052;-48
2023/07/24 01:30:56;;;;;;;0.10;0.10;;;;;;;16.52;100.00;100261.59;5054495;28;20057;-49
2023/07/24 01:33:22;;;;;;;0.10;0.10;;;;;;;16.51;100.00;100244.25;5055296;28;20045;-49
2023/07/24 01:35:54;;;;;;;0.10;0.10;;;;;;;16.52;100.00;100249.44;5055532;28;20075;-48
2023/07/24 01:38:21;;;;;;;0.03;0.03;;;;;;;16.52;100.00;100243.38;5054481;28;20381;-50
2023/07/24 01:40:48;;;;;;;0.10;0.10;;;;;;;16.52;100.00;100238.19;5054978;28;20021;-50
2023/07/24 01:43:14;;;;;;;0.10;0.10;;;;;;;16.53;100.00;100242.50;5055062;28;20122;-49
2023/07/24 01:45:39;;;;;;;0.10;0.10;;;;;;;16.54;100.00;100246.81;5053874;28;20385;-50
2023/07/24 01:48:05;;;;;;;0.10;0.10;;;;;;;16.55;100.00;100241.63;5055024;28;20442;-49
2023/07/24 01:50:31;;;;;;;0.10;0.10;;;;;;;16.53;100.00;100245.97;5054801;28;20081;-49
2023/07/24 01:52:56;;;;;;;0.10;0.10;;;;;;;16.53;100.00;100229.50;5054555;28;20028;-49
2023/07/24 01:55:21;;;;;;;0.10;0.10;;;;;;;16.51;100.00;100216.47;5054524;28;20066;-48
2023/07/24 01:57:47;;;;;;;0.10;0.10;;;;;;;16.50;100.00;100208.69;5054177;28;20025;-50
2023/07/24 02:00:12;;;;;;;0.10;0.10;;;;;;;16.49;100.00;100212.16;5054287;28;20048;-49
2023/07/24 02:02:37;;;;;;;0.10;0.10;;;;;;;16.48;100.00;100213.06;5054517;28;20381;-49
2023/07/24 02:05:03;;;;;;;0.10;0.10;;;;;;;16.48;100.00;100205.25;5054675;28;20053;-48
2023/07/24 02:07:28;;;;;;;0.10;0.10;;;;;;;16.46;100.00;100219.13;5054154;28;20017;-50
2023/07/24 02:09:54;;;;;;;0.10;0.10;;;;;;;16.45;100.00;100209.59;5054715;28;20373;-48
2023/07/24 02:12:19;;;;;;;0.10;0.10;;;;;;;16.48;100.00;100208.72;5054649;28;20043;-50
2023/07/24 02:14:48;;;;;;;0.10;0.10;;;;;;;16.47;100.00;100201.78;5053707;28;20028;-48
2023/07/24 02:17:13;;;;;;;0.10;0.10;;;;;;;16.47;100.00;100199.16;5054555;28;20025;-50
2023/07/24 02:19:38;;;;;;;0.00;0.00;;;;;;;16.48;100.00;100192.25;5054170;28;20104;-48
2023/07/24 02:22:04;;;;;;;0.10;0.10;;;;;;;16.48;100.00;100200.06;5054121;28;20021;-50
2023/07/24 02:24:29;;;;;;;0.10;0.10;;;;;;;16.48;100.00;100194.84;5054253;28;20028;-50
2023/07/24 02:26:54;;;;;;;0.10;0.10;;;;;;;16.46;100.00;100198.31;5054307;28;20028;-49
2023/07/24 02:29:19;;;;;;;0.10;0.10;;;;;;;16.47;100.00;100204.38;5053782;28;20074;-47
2023/07/24 02:31:45;;;;;;;0.10;0.10;;;;;;;16.48;100.00;100194.84;5053958;28;20020;-47
2023/07/24 02:34:10;;;;;;;0.10;0.10;;;;;;;16.46;100.00;100193.13;5053412;28;20029;-49
2023/07/24 02:36:36;;;;;;;0.10;0.10;;;;;;;16.44;100.00;100189.66;5054046;28;20132;-49
2023/07/24 02:39:01;;;;;;;0.10;0.10;;;;;;;16.44;100.00;100194.84;5054151;28;20032;-50
2023/07/24 02:41:27;;;;;;;0.10;0.10;;;;;;;16.45;100.00;100196.59;5052940;28;20029;-49
2023/07/24 02:43:52;;;;;;;0.10;0.10;;;;;;;16.42;100.00;100191.41;5054093;28;20396;-47
2023/07/24 02:46:17;;;;;;;0.10;0.10;;;;;;;16.44;100.00;100199.19;5054238;28;20048;-49
2023/07/24 02:48:42;;;;;;;0.10;0.10;;;;;;;16.43;100.00;100208.72;5052909;28;20060;-50
2023/07/24 02:51:08;;;;;;;0.10;0.10;;;;;;;16.44;100.00;100215.66;5053890;28;20392;-50
2023/07/24 02:53:33;;;;;;;0.03;0.03;;;;;;;16.44;100.00;100200.06;5053668;28;20029;-50
2023/07/24 02:56:01;;;;;;;0.10;0.10;;;;;;;16.43;100.00;100185.31;5052958;28;20457;-50
2023/07/24 02:58:26;;;;;;;0.10;0.10;;;;;;;16.44;100.00;100173.19;5053411;28;20074;-51
2023/07/24 03:00:51;;;;;;;0.10;0.10;;;;;;;16.42;100.00;100175.81;5053766;28;20029;-50
2023/07/24 03:03:17;;;;;;;0.00;0.00;;;;;;;16.43;100.00;100182.72;5053352;28;20416;-49
2023/07/24 03:05:42;;;;;;;0.00;0.00;;;;;;;16.42;100.00;100194.00;5053560;28;20043;-48
2023/07/24 03:08:07;;;;;;;0.03;0.03;;;;;;;16.42;100.00;100193.13;5053388;28;20036;-49
2023/07/24 03:10:33;;;;;;;0.00;0.00;;;;;;;16.39;100.00;100182.75;5052711;28;20032;-48
2023/07/24 03:12:58;;;;;;;0.10;0.10;;;;;;;16.32;100.00;100173.25;5053546;28;20033;-49
2023/07/24 03:15:23;;;;;;;0.10;0.10;;;;;;;16.24;100.00;100170.69;5053092;28;20439;-49
2023/07/24 03:17:48;;;;;;;0.10;0.10;;;;;;;16.18;100.00;100173.28;5053091;28;20037;-47
2023/07/24 03:20:17;;;;;;;0.10;0.10;;;;;;;16.14;100.00;100180.28;5053579;28;20020;-49
2023/07/24 03:22:43;;;;;;;0.00;0.00;;;;;;;16.07;100.00;100181.16;5052889;28;20072;-48
2023/07/24 03:25:08;;;;;;;0.10;0.10;;;;;;;16.01;100.00;100184.66;5052892;28;20059;-47
2023/07/24 03:27:34;;;;;;;0.00;0.00;;;;;;;15.97;100.00;100193.31;5052971;28;20016;-49
2023/07/24 03:29:59;;;;;;;0.00;0.00;;;;;;;15.90;100.00;100181.22;5052973;28;20358;-47
2023/07/24 03:32:25;;;;;;;0.00;0.00;;;;;;;15.86;100.00;100175.16;5052625;28;20021;-49
2023/07/24 03:34:50;;;;;;;0.00;0.00;;;;;;;15.82;100.00;100172.59;5053150;28;20040;-44
2023/07/24 03:37:15;;;;;;;0.10;0.10;;;;;;;15.77;100.00;100169.97;5052814;28;20029;-48
2023/07/24 03:39:41;;;;;;;0.10;0.10;;;;;;;15.74;100.00;100168.22;5052253;28;20036;-47
2023/07/24 03:42:06;;;;;;;0.10;0.10;;;;;;;15.70;100.00;100173.44;5052901;28;20045;-49
2023/07/24 03:44:31;;;;;;;0.10;0.10;;;;;;;15.71;100.00;100170.84;5051782;28;20033;-47
2023/07/24 03:46:56;;;;;;;0.10;0.10;;;;;;;15.66;100.00;100163.91;5053239;28;20056;-48
2023/07/24 03:49:22;;;;;;;0.10;0.10;;;;;;;15.66;100.00;100162.19;5053159;28;20058;-45
2023/07/24 03:51:48;;;;;;;0.10;0.10;;;;;;;15.66;100.00;100167.41;5052284;28;20587;-47
2023/07/24 03:54:13;;;;;;;0.10;0.10;;;;;;;15.62;100.00;100163.06;5052985;28;20488;-48
2023/07/24 03:56:39;;;;;;;0.10;0.10;;;;;;;15.62;100.00;100165.66;5052549;28;20025;-47
2023/07/24 03:59:05;;;;;;;0.10;0.10;;;;;;;15.61;100.00;100170.00;5051882;28;20531;-45
2023/07/24 04:01:31;;;;;;;0.10;0.10;;;;;;;15.61;100.00;100167.41;5052411;28;20029;-46
2023/07/24 04:03:57;;;;;;;0.10;0.10;;;;;;;15.61;100.00;100169.13;5052574;28;20268;-48
2023/07/24 04:06:23;;;;;;;0.10;0.10;;;;;;;15.62;100.00;100160.47;5051725;28;20025;-45
2023/07/24 04:08:48;;;;;;;0.10;0.10;;;;;;;15.59;100.00;100166.53;5052572;28;20039;-47
2023/07/24 04:11:13;;;;;;;0.00;0.00;;;;;;;15.58;100.00;100170.00;5052359;28;20021;-48
2023/07/24 04:13:39;;;;;;;0.10;0.10;;;;;;;15.58;100.00;100174.31;5051613;28;20432;-48
2023/07/24 04:16:04;;;;;;;0.10;0.10;;;;;;;15.56;100.00;100182.13;5052784;28;20044;-48
2023/07/24 04:18:29;;;;;;;0.10;0.10;;;;;;;15.57;100.00;100180.38;5051936;28;20082;-47
2023/07/24 04:20:56;;;;;;;0.10;0.10;;;;;;;15.54;100.00;100188.19;5056252;28;20187;-44
2023/07/24 04:23:21;;;;;;;0.00;0.00;;;;;;;15.51;100.00;100186.47;5056845;28;20032;-48
2023/07/24 04:25:49;;;;;;;0.10;0.10;;;;;;;15.46;100.00;100181.25;5056102;28;20260;-47
2023/07/24 04:28:14;;;;;;;;;;;;;;;15.57;100.00;100188.16;5056397;28;20040;-48
2023/07/24 04:30:40;;;;;;;0.10;0.10;;;;;;;15.46;100.00;100191.66;5056134;28;20268;-45
2023/07/24 04:33:05;;;;;;;0.10;0.10;;;;;;;15.47;100.00;100193.38;5056186;28;20064;-43
2023/07/24 04:35:30;;;;;;;0.10;0.10;;;;;;;15.46;100.00;100190.78;5055621;28;20103;-46
2023/07/24 04:37:57;;;;;;;0.10;0.10;;;;;;;15.42;100.00;100184.72;5056622;28;20017;-44
2023/07/24 04:40:22;;;;;;;0.10;0.10;;;;;;;15.40;100.00;100191.69;5055919;28;20048;-44
2023/07/24 04:42:48;;;;;;;0.10;0.10;;;;;;;15.31;100.00;100192.53;5055435;28;20080;-48
2023/07/24 04:45:13;;;;;;;0.10;0.10;;;;;;;15.28;100.00;100197.72;5056424;28;20055;-45
2023/07/24 04:47:38;;;;;;;0.10;0.10;;;;;;;15.26;100.00;100195.97;5055594;28;20438;-46
2023/07/24 04:50:04;;;;;;;0.10;0.10;;;;;;;15.23;100.00;100189.06;5055918;28;20111;-44
2023/07/24 04:52:30;;;;;;;0.10;0.10;;;;;;;15.20;100.00;100186.47;5055921;28;20423;-44
2023/07/24 04:54:55;;;;;;;0.08;0.08;;;;;;;15.19;100.00;100178.69;5055332;28;20468;-49
2023/07/24 04:57:20;;;;;;;0.10;0.10;;;;;;;15.13;100.00;100185.63;5056014;28;20032;-48
2023/07/24 04:59:46;;;;;;;0.10;0.10;;;;;;;15.13;100.00;100188.22;5055605;28;20040;-43
2023/07/24 05:02:11;;;;;;;0.10;0.10;;;;;;;15.10;100.00;100193.38;5055327;28;20535;-50
2023/07/24 05:04:37;;;;;;;0.10;0.10;;;;;;;15.08;100.00;100195.13;5055856;28;20021;-43
2023/07/24 05:07:02;;;;;;;0.10;0.10;;;;;;;15.12;100.00;100196.00;5055675;28;20037;-44
2023/07/24 05:09:28;;;;;;;0.10;0.10;;;;;;;15.11;100.00;100189.94;5055052;28;20067;-49
2023/07/24 05:11:53;;;;;;;0.10;0.10;;;;;;;15.12;100.00;100190.81;5055784;28;20033;-48
2023/07/24 05:14:18;;;;;;;0.10;0.10;;;;;;;15.21;100.00;100187.31;5055459;28;20020;-47
2023/07/24 05:16:43;;;;;;;0.00;0.00;;;;;;;15.20;100.00;100193.41;5055037;28;20061;-44
2023/07/24 05:19:09;;;;;;;0.10;0.10;;;;;;;15.20;100.00;100193.41;5056040;28;20029;-44
2023/07/24 05:21:34;;;;;;;0.10;0.10;;;;;;;15.21;100.00;100201.19;5055138;28;20358;-47
2023/07/24 05:23:59;;;;;;;0.10;0.10;;;;;;;15.21;100.00;100196.00;5054996;28;20029;-48
2023/07/24 05:26:25;;;;;;;0.10;0.10;;;;;;;15.19;100.00;100205.50;5055214;28;20037;-44
2023/07/24 05:28:53;;;;;;;0.10;0.10;;;;;;;15.15;100.00;100207.22;5055369;28;20408;-47
2023/07/24 05:31:18;;;;;;;0.10;0.10;;;;;;;15.15;100.00;100202.03;5053662;28;20029;-43
2023/07/24 05:33:44;;;;;;;0.10;0.10;;;;;;;15.17;100.00;100201.19;5055254;28;20108;-44
2023/07/24 05:36:09;;;;;;;0.10;0.10;;;;;;;15.13;100.00;100198.59;5055211;28;20362;-48
2023/07/24 05:38:34;;;;;;;0.10;0.10;;;;;;;15.19;100.00;100207.25;5054437;28;20057;-44
2023/07/24 05:41:02;;;;;;;0.10;0.10;;;;;;;15.19;100.00;100204.66;5055118;28;20029;-49
2023/07/24 05:43:28;;;;;;;0.10;0.10;;;;;;;15.19;100.00;100205.50;5054536;28;20052;-46
2023/07/24 05:45:55;;;;;;;0.10;0.10;;;;;;;15.24;100.00;100210.72;5054522;28;20037;-49
2023/07/24 05:48:21;;;;;;;0.10;0.10;;;;;;;15.24;100.00;100210.72;5055184;28;20025;-48
2023/07/24 05:50:47;;;;;;;0.10;0.10;;;;;;;15.28;100.00;100220.22;5054428;28;20032;-44
2023/07/24 05:53:13;;;;;;;0.10;0.10;;;;;;;15.27;100.00;100216.78;5054598;28;20033;-45
2023/07/24 05:55:38;;;;;;;0.10;0.10;;;;;;;15.29;100.00;100214.19;5054615;28;20147;-47
2023/07/24 05:58:03;;;;;;;0.10;0.10;;;;;;;15.31;100.00;100222.81;5054414;28;20049;-44
2023/07/24 06:00:29;;;;;;;0.10;0.10;;;;;;;15.35;100.00;100216.78;5054766;28;20063;-45
2023/07/24 06:02:54;;;;;;;0.10;0.10;;;;;;;15.37;100.00;100220.22;5054959;28;20028;-46
2023/07/24 06:05:20;;;;;;;0.10;0.10;;;;;;;15.41;100.00;100226.28;5053977;28;20749;-48
2023/07/24 06:07:46;;;;;;;0.10;0.10;;;;;;;15.40;100.00;100222.84;5054469;28;20075;-45
2023/07/24 06:10:11;;;;;;;0.10;0.10;;;;;;;15.44;100.00;100224.56;5054341;28;20029;-48
2023/07/24 06:12:37;;;;;;;0.10;0.10;;;;;;;15.47;100.00;100213.31;5053633;28;20163;-44
2023/07/24 06:15:03;;;;;;;0.10;0.10;;;;;;;15.55;100.00;100224.53;5054516;28;20401;-49
2023/07/24 06:17:28;;;;;;;0.10;0.10;;;;;;;15.66;100.00;100229.75;5054013;28;20045;-47
2023/07/24 06:19:53;;;;;;;0.10;0.10;;;;;;;15.74;100.00;100233.19;5054025;28;20021;-45
2023/07/24 06:22:19;;;;;;;0.03;0.03;;;;;;;15.79;100.00;100235.78;5054552;28;20029;-49
2023/07/24 06:24:44;;;;;;;0.10;0.10;;;;;;;15.84;100.00;100228.88;5053835;28;20021;-49
2023/07/24 06:27:09;;;;;;;0.10;0.10;;;;;;;15.91;100.00;100224.53;5053801;28;20416;-48
2023/07/24 06:29:35;;;;;;;0.10;0.10;;;;;;;16.03;100.00;100224.47;5054013;28;20032;-44
2023/07/24 06:32:00;;;;;;;0.05;0.05;;;;;;;16.15;100.00;100230.50;5054318;28;20469;-45
2023/07/24 06:34:25;;;;;;;0.03;0.03;;;;;;;16.23;100.00;100223.53;5053455;28;20024;-45
2023/07/24 06:36:51;;;;;;;0.03;0.03;;;;;;;16.26;100.00;100226.16;5054498;28;20112;-44
2023/07/24 06:39:16;;;;;;;0.10;0.10;;;;;;;16.36;100.00;100227.84;5053873;28;20112;-46
2023/07/24 06:41:41;;;;;;;0.10;0.10;;;;;;;16.52;100.00;100235.56;5052617;28;20059;-44
2023/07/24 06:44:07;;;;;;;0.08;0.08;;;;;;;16.58;100.00;100225.16;5054287;28;20116;-46
2023/07/24 06:46:32;;;;;;;0.10;0.10;;;;;;;16.71;100.00;100224.19;5053742;28;20028;-48
2023/07/24 06:48:57;;;;;;;0.00;0.00;;;;;;;16.73;100.00;100232.88;5053536;28;20029;-47
2023/07/24 06:51:23;;;;;;;0.10;0.10;;;;;;;16.63;100.00;100231.19;5053597;28;20104;-43
2023/07/24 06:53:48;;;;;;;0.10;0.10;;;;;;;16.50;100.00;100234.69;5053598;28;20027;-49
2023/07/24 06:56:13;;;;;;;0.10;0.10;;;;;;;16.44;100.00;100225.22;5053213;28;20025;-44
2023/07/24 06:58:39;;;;;;;0.10;0.10;;;;;;;16.45;100.00;100225.19;5053418;28;20021;-44
2023/07/24 07:01:07;;;;;;;0.10;0.10;;;;;;;16.44;100.00;100226.06;5053674;28;20023;-49
2023/07/24 07:03:34;;;;;;;0.10;0.10;;;;;;;16.35;100.00;100225.25;5052941;28;20064;-44
2023/07/24 07:06:00;;;;;;;0.10;0.10;;;;;;;16.29;100.00;100220.94;5053730;28;20098;-44
2023/07/24 07:08:26;;;;;;;0.10;0.10;;;;;;;16.28;100.00;100227.00;5052414;28;20416;-44
2023/07/24 07:10:58;;;;;;;0.10;0.10;;;;;;;16.19;100.00;100224.44;5053703;28;20120;-44
2023/07/24 07:13:23;;;;;;;0.00;0.00;;;;;;;16.12;100.00;100231.38;5053173;28;20060;-48
2023/07/24 07:15:49;;;;;;;0.10;0.10;;;;;;;16.18;100.00;100228.78;5053172;28;20100;-48
2023/07/24 07:18:14;;;;;;;0.10;0.10;;;;;;;16.09;100.00;100224.47;5053534;28;20033;-43
2023/07/24 07:20:48;;;;;;;0.10;0.10;;;;;;;16.11;100.00;100230.53;5053118;28;20028;-49
2023/07/24 07:23:14;;;;;;;0.10;0.10;;;;;;;16.17;100.00;100226.19;5052855;28;20052;-48
2023/07/24 07:25:39;;;;;;;0.10;0.10;;;;;;;16.09;100.00;100224.47;5053154;28;20118;-47
2023/07/24 07:28:05;;;;;;;0.10;0.10;;;;;;;16.11;100.00;100221.84;5052974;28;20032;-46
2023/07/24 07:30:30;;;;;;;0.10;0.10;;;;;;;16.02;100.00;100224.50;5052385;28;20055;-48
2023/07/24 07:32:55;;;;;;;0.00;0.00;;;;;;;16.02;100.00;100221.88;5053337;28;20029;-48
2023/07/24 07:35:21;;;;;;;0.10;0.10;;;;;;;16.01;100.00;100221.03;5053089;28;20035;-49
2023/07/24 07:37:46;;;;;;;0.10;0.10;;;;;;;16.13;100.00;100227.94;5052266;28;20029;-49
2023/07/24 07:40:12;;;;;;;0.10;0.10;;;;;;;16.12;100.00;100229.63;5053370;28;20033;-44
2023/07/24 07:42:37;;;;;;;0.10;0.10;;;;;;;16.04;100.00;100226.22;5052326;28;20072;-48
2023/07/24 07:45:03;;;;;;;0.00;0.00;;;;;;;16.15;100.00;100227.91;5052600;28;20033;-44
2023/07/24 07:47:28;;;;;;;0.10;0.10;;;;;;;16.20;100.00;100227.00;5052700;28;20059;-47
2023/07/24 07:49:53;;;;;;;0.03;0.03;;;;;;;16.34;100.00;100224.38;5052700;28;20112;-43
2023/07/24 07:52:21;;;;;;;0.00;0.00;;;;;;;16.58;100.00;100222.53;5052308;28;20064;-48
2023/07/24 07:54:48;;;;;;;0.10;0.10;;;;;;;16.67;100.00;100219.00;5051982;28;20032;-47
2023/07/24 07:57:13;;;;;;;0.10;0.10;;;;;;;16.69;100.00;100218.13;5052733;28;20469;-48
2023/07/24 07:59:38;;;;;;;0.10;0.10;;;;;;;16.81;100.00;100209.41;5051924;28;20033;-46
2023/07/24 08:02:04;;;;;;;0.00;0.00;;;;;;;16.79;100.00;100214.59;5052858;28;20071;-47
2023/07/24 08:04:29;;;;;;;0.10;0.10;;;;;;;16.78;100.00;100215.50;5052327;28;20040;-45
2023/07/24 08:06:54;;;;;;;0.00;0.00;;;;;;;16.87;100.00;100229.31;5052097;28;20354;-48
2023/07/24 08:09:21;;;;;;;0.10;0.10;;;;;;;17.04;100.00;100227.50;5052540;28;20440;-49
2023/07/24 08:11:47;;;;;;;0.00;0.00;;;;;;;17.22;100.00;100220.41;5051598;28;20524;-44
2023/07/24 08:14:12;;;;;;;0.00;0.00;;;;;;;17.12;100.00;100230.06;5052768;28;20111;-49
2023/07/24 08:16:38;;;;;;;0.10;0.10;;;;;;;17.12;100.00;100237.88;5052108;28;20024;-49
2023/07/24 08:19:03;;;;;;;0.00;0.00;;;;;;;17.18;100.00;100242.16;5052032;28;20025;-47
2023/07/24 08:21:29;;;;;;;0.05;0.05;;;;;;;17.55;100.00;100231.44;5052134;28;20116;-48
2023/07/24 08:23:54;;;;;;;0.00;0.00;;;;;;;17.64;100.00;100236.56;5052575;28;20021;-47
2023/07/24 08:26:19;;;;;;;0.10;0.10;;;;;;;17.64;100.00;100223.53;5052103;28;20025;-48
2023/07/24 08:28:44;;;;;;;0.10;0.10;;;;;;;17.90;100.00;100222.41;5052361;28;20064;-48
2023/07/24 08:31:10;;;;;;;0.03;0.03;;;;;;;18.05;100.00;100218.78;5052324;28;20095;-47
2023/07/24 08:33:36;;;;;;;0.00;0.00;;;;;;;18.24;100.00;100211.59;5051527;28;20060;-48
2023/07/24 08:36:04;;;;;;;0.00;0.00;;;;;;;18.16;100.00;100227.34;5052413;28;20461;-48
2023/07/24 08:38:29;;;;;;;0.03;0.03;;;;;;;18.15;100.00;100224.75;5052050;28;20025;-44
2023/07/24 08:41:12;;;;;;;0.00;0.00;;;;;;;17.96;100.00;100224.97;5051751;28;20135;-46
2023/07/24 08:43:39;;;;;;;0.10;0.10;;;;;;;17.82;100.00;100224.22;5052195;28;20036;-44
2023/07/24 08:46:05;;;;;;;0.00;0.00;;;;;;;17.57;100.00;100220.13;5052045;28;20461;-48
2023/07/24 08:48:35;;;;;;;0.00;0.00;;;;;;;17.47;100.00;100220.19;5051461;28;20033;-44
2023/07/24 08:51:05;;;;;;;0.00;0.00;;;;;;;17.42;100.00;100218.50;5052646;28;20059;-49
2023/07/24 08:53:35;;;;;;;0.05;0.05;;;;;;;17.41;100.00;100221.97;5052070;28;20025;-44
2023/07/24 08:56:05;;;;;;;0.10;0.10;;;;;;;17.40;100.00;100219.41;5051974;28;20032;-49
2023/07/24 08:58:30;;;;;;;0.00;0.00;;;;;;;17.47;100.00;100222.81;5052065;28;20473;-44
2023/07/24 09:00:57;;;;;;;0.10;0.10;;;;;;;17.27;100.00;100214.31;5051340;28;20132;-49
2023/07/24 09:03:22;;;;;;;0.10;0.10;;;;;;;17.22;100.00;100210.88;5051810;28;20480;-45
2023/07/24 09:05:48;;;;;;;0.00;0.00;;;;;;;17.25;100.00;100202.19;5054082;28;20017;-45
2023/07/24 09:08:14;;;;;;;0.00;0.00;;;;;;;17.54;100.00;100207.09;5055232;28;20112;-47
2023/07/24 09:10:39;;;;;;;0.00;0.00;;;;;;;17.66;100.00;100206.13;5055510;28;20028;-49
2023/07/24 09:13:04;;;;;;;0.00;0.00;;;;;;;17.83;100.00;100199.88;5055650;28;20060;-49
2023/07/24 09:15:43;;;;;;;0.00;0.00;;;;;;;18.08;100.00;100185.72;5054942;28;20028;-46
2023/07/24 09:18:09;;;;;;;0.00;0.00;;;;;;;18.09;100.00;100187.44;5055700;28;20503;-47
2023/07/24 09:20:41;;;;;;;0.00;0.00;;;;;;;18.30;100.00;100185.44;5055344;28;20028;-48
2023/07/24 09:23:08;;;;;;;0.00;0.00;;;;;;;18.64;100.00;100186.75;5055175;28;20057;-48
2023/07/24 09:25:35;;;;;;;0.00;0.00;;;;;;;19.23;100.00;100177.13;5055425;28;20118;-47
2023/07/24 09:28:08;;;;;;;0.00;0.00;;;;;;;19.05;100.00;100170.47;5055366;28;20028;-46
2023/07/24 09:30:33;;;;;;;0.00;0.00;;;;;;;18.90;100.00;100174.19;5054804;28;20028;-44
2023/07/24 09:32:59;;;;;;;0.00;0.00;;;;;;;18.79;100.00;100176.06;5055424;28;20029;-47
2023/07/24 09:35:27;;;;;;;0.00;0.00;;;;;;;18.74;100.00;100167.44;5054970;28;20051;-48
2023/07/24 09:38:02;;;;;;;0.00;0.00;;;;;;;18.55;100.00;100161.63;5054867;28;20016;-48
2023/07/24 09:40:27;;;;;;;0.00;0.00;;;;;;;18.55;100.00;100157.28;5055034;28;20458;-46
2023/07/24 09:42:53;;;;;;;0.00;0.00;;;;;;;18.44;100.00;100153.97;5054771;28;20504;-49
2023/07/24 09:45:18;;;;;;;0.00;0.00;;;;;;;18.36;100.00;100156.69;5054590;28;20354;-47
2023/07/24 09:47:44;;;;;;;0.10;0.10;;;;;;;18.33;100.00;100141.06;5054818;28;20029;-45
2023/07/24 09:50:10;;;;;;;0.00;0.00;;;;;;;18.31;100.00;100135.00;5054591;28;20028;-49
2023/07/24 09:52:36;;;;;;;0.00;0.00;;;;;;;18.26;100.00;100135.06;5054667;28;20380;-48
2023/07/24 09:55:24;;;;;;;0.00;0.00;;;;;;;18.16;100.00;100127.38;5054821;28;20100;-46
2023/07/24 09:57:53;;;;;;;0.00;0.00;;;;;;;18.28;100.00;100137.63;5048714;28;20568;-47
2023/07/24 10:00:18;;;;;;;0.08;0.08;;;;;;;18.05;100.00;100131.00;5054863;28;20020;-48
2023/07/24 10:02:44;;;;;;;0.10;0.10;;;;;;;18.00;100.00;100131.94;5054497;28;20029;-44
2023/07/24 10:05:11;;;;;;;0.00;0.00;;;;;;;17.99;100.00;100125.84;5054484;28;20048;-48
2023/07/24 10:07:37;;;;;;;0.10;0.10;;;;;;;18.01;100.00;100123.22;5054463;28;20170;-47
2023/07/24 10:10:02;;;;;;;0.00;0.00;;;;;;;17.91;100.00;100119.84;5054581;28;20112;-50
2023/07/24 10:12:30;;;;;;;0.10;0.10;;;;;;;17.83;100.00;100134.72;5053835;28;20033;-48
2023/07/24 10:14:55;;;;;;;;;;;;;;;18.09;100.00;100137.91;5054973;28;20575;-49
2023/07/24 10:17:35;;;;;;;0.00;0.00;;;;;;;17.83;100.00;100140.81;5053626;28;19995;-48
2023/07/24 10:20:08;;;;;;;0.00;0.00;;;;;;;17.74;100.00;100146.09;5054041;28;20531;-48
2023/07/24 10:22:35;;;;;;;0.03;0.03;;;;;;;17.68;100.00;100144.44;5054255;28;20079;-43
2023/07/24 10:25:00;;;;;;;0.10;0.10;;;;;;;17.60;100.00;100141.06;5054364;28;20056;-48
2023/07/24 10:27:28;;;;;;;0.10;0.10;;;;;;;17.55;100.00;100156.72;5053465;28;20162;-49
2023/07/24 10:30:05;;;;;;;0.10;0.10;;;;;;;17.53;100.00;100165.44;5054076;28;20025;-48
2023/07/24 10:32:30;;;;;;;0.10;0.10;;;;;;;17.38;100.00;100169.06;5053490;28;20508;-46
2023/07/24 10:35:08;;;;;;;0.10;0.10;;;;;;;17.29;100.00;100170.03;5054286;28;20029;-50
2023/07/24 10:37:35;;;;;;;0.00;0.00;;;;;;;17.17;100.00;100170.09;5053669;28;20495;-49
2023/07/24 10:40:03;;;;;;;0.10;0.10;;;;;;;17.13;100.00;100164.06;5053573;28;20378;-48
2023/07/24 10:42:29;;;;;;;0.10;0.10;;;;;;;17.09;100.00;100157.16;5053717;28;20045;-44
2023/07/24 10:45:06;;;;;;;0.10;0.10;;;;;;;17.23;100.00;100151.84;5053909;28;20029;-49
2023/07/24 10:47:31;;;;;;;0.10;0.10;;;;;;;17.42;100.00;100156.00;5053090;28;20025;-48
2023/07/24 10:50:02;;;;;;;0.10;0.10;;;;;;;17.61;100.00;100171.44;5054237;28;20029;-48
2023/07/24 10:52:32;;;;;;;0.00;0.00;;;;;;;17.80;100.00;100181.66;5053309;28;20021;-48
2023/07/24 10:55:01;;;;;;;0.10;0.10;;;;;;;18.21;100.00;100175.13;5053361;28;20425;-48
2023/07/24 10:57:27;;;;;;;0.10;0.10;;;;;;;18.32;100.00;100180.22;5053571;28;20025;-48
2023/07/24 10:59:53;;;;;;;0.00;0.00;;;;;;;18.26;100.00;100186.38;5053501;28;20539;-48
2023/07/24 11:02:18;;;;;;;0.00;0.00;;;;;;;18.37;100.00;100179.28;5053381;28;20021;-49
2023/07/24 11:04:44;;;;;;;0.10;0.10;;;;;;;18.41;100.00;100183.56;5053576;28;20029;-48
2023/07/24 11:07:09;;;;;;;0.00;0.00;;;;;;;18.37;100.00;100187.09;5053702;28;20461;-48
2023/07/24 11:09:43;;;;;;;0.00;0.00;;;;;;;18.20;100.00;100187.31;5052605;28;20029;-48
2023/07/24 11:12:14;;;;;;;0.00;0.00;;;;;;;18.29;100.00;100180.25;5053254;28;20437;-49